sensor_id;sensor_type;location;lat;lon;timestamp;P1;durP1;ratioP1;P2;durP2;ratioP2
30458;SDS011;17254;50.976;7.034;2022-11-11T00:00:05;16.44;;;11.98;;
30458;SDS011;17254;50.976;7.034;2022-11-11T00:00:31;17.63;;;12.16;;
30458;SDS011;17254;50.976;7.034;2022-11-11T00:00:59;19.69;;;12.02;;
30458;SDS011;17254;50.976;7.034;2022-11-11T00:01:24;19.44;;;11.99;;
30458;SDS011;17254;50.976;7.034;2022-11-11T00:01:49;19.01;;;12.07;;
30458;SDS011;17254;50.976;7.034;2022-11-11T00:02:14;19.02;;;12.00;;
30458;SDS011;17254;50.976;7.034;2022-11-11T00:02:38;19.36;;;11.52;;
30458;SDS011;17254;50.976;7.034;2022-11-11T00:03:03;18.31;;;11.74;;
30458;SDS011;17254;50.976;7.034;2022-11-11T00:03:29;17.50;;;11.75;;
30458;SDS011;17254;50.976;7.034;2022-11-11T00:03:54;16.77;;;11.51;;
30458;SDS011;17254;50.976;7.034;2022-11-11T00:04:18;17.39;;;11.25;;
30458;SDS011;17254;50.976;7.034;2022-11-11T00:04:43;19.88;;;12.04;;
30458;SDS011;17254;50.976;7.034;2022-11-11T00:05:09;18.94;;;12.56;;
30458;SDS011;17254;50.976;7.034;2022-11-11T00:05:33;19.16;;;12.60;;
30458;SDS011;17254;50.976;7.034;2022-11-11T00:06:01;19.89;;;12.21;;
30458;SDS011;17254;50.976;7.034;2022-11-11T00:06:27;21.63;;;12.50;;
30458;SDS011;17254;50.976;7.034;2022-11-11T00:06:54;19.30;;;12.71;;
30458;SDS011;17254;50.976;7.034;2022-11-11T00:07:18;20.15;;;11.86;;
30458;SDS011;17254;50.976;7.034;2022-11-11T00:07:43;19.00;;;11.82;;
30458;SDS011;17254;50.976;7.034;2022-11-11T00:08:08;19.55;;;11.86;;
30458;SDS011;17254;50.976;7.034;2022-11-11T00:08:33;18.90;;;11.89;;
30458;SDS011;17254;50.976;7.034;2022-11-11T00:08:58;19.34;;;11.75;;
30458;SDS011;17254;50.976;7.034;2022-11-11T00:09:22;18.27;;;11.56;;
30458;SDS011;17254;50.976;7.034;2022-11-11T00:09:48;18.34;;;11.46;;
30458;SDS011;17254;50.976;7.034;2022-11-11T00:10:13;18.35;;;11.65;;
30458;SDS011;17254;50.976;7.034;2022-11-11T00:10:38;18.96;;;12.00;;
30458;SDS011;17254;50.976;7.034;2022-11-11T00:11:04;20.11;;;11.91;;
30458;SDS011;17254;50.976;7.034;2022-11-11T00:11:31;19.05;;;11.94;;
30458;SDS011;17254;50.976;7.034;2022-11-11T00:11:56;18.50;;;11.86;;
30458;SDS011;17254;50.976;7.034;2022-11-11T00:12:20;19.94;;;11.95;;
30458;SDS011;17254;50.976;7.034;2022-11-11T00:12:45;20.35;;;11.51;;
30458;SDS011;17254;50.976;7.034;2022-11-11T00:13:10;18.30;;;11.25;;
30458;SDS011;17254;50.976;7.034;2022-11-11T00:13:35;17.42;;;11.88;;
30458;SDS011;17254;50.976;7.034;2022-11-11T00:14:00;17.74;;;11.80;;
30458;SDS011;17254;50.976;7.034;2022-11-11T00:14:25;17.04;;;11.75;;
30458;SDS011;17254;50.976;7.034;2022-11-11T00:14:50;15.59;;;11.63;;
30458;SDS011;17254;50.976;7.034;2022-11-11T00:15:15;16.27;;;11.18;;
30458;SDS011;17254;50.976;7.034;2022-11-11T00:15:40;17.98;;;11.60;;
30458;SDS011;17254;50.976;7.034;2022-11-11T00:16:04;19.39;;;12.05;;
30458;SDS011;17254;50.976;7.034;2022-11-11T00:16:31;18.65;;;11.63;;
30458;SDS011;17254;50.976;7.034;2022-11-11T00:17:11;17.67;;;11.46;;
30458;SDS011;17254;50.976;7.034;2022-11-11T00:17:56;18.01;;;11.60;;
30458;SDS011;17254;50.976;7.034;2022-11-11T00:18:40;18.14;;;11.54;;
30458;SDS011;17254;50.976;7.034;2022-11-11T00:19:25;18.30;;;11.51;;
30458;SDS011;17254;50.976;7.034;2022-11-11T00:20:09;19.67;;;12.13;;
30458;SDS011;17254;50.976;7.034;2022-11-11T00:20:52;17.74;;;12.16;;
30458;SDS011;17254;50.976;7.034;2022-11-11T00:21:36;18.79;;;11.71;;
30458;SDS011;17254;50.976;7.034;2022-11-11T00:22:21;18.16;;;11.64;;
30458;SDS011;17254;50.976;7.034;2022-11-11T00:23:06;17.14;;;11.05;;
30458;SDS011;17254;50.976;7.034;2022-11-11T00:24:01;17.39;;;11.17;;
30458;SDS011;17254;50.976;7.034;2022-11-11T00:24:44;19.43;;;12.34;;
30458;SDS011;17254;50.976;7.034;2022-11-11T00:25:27;18.79;;;11.48;;
30458;SDS011;17254;50.976;7.034;2022-11-11T00:25:53;20.33;;;12.04;;
30458;SDS011;17254;50.976;7.034;2022-11-11T00:26:17;21.63;;;12.39;;
30458;SDS011;17254;50.976;7.034;2022-11-11T00:26:42;20.79;;;12.39;;
30458;SDS011;17254;50.976;7.034;2022-11-11T00:27:07;19.56;;;11.84;;
30458;SDS011;17254;50.976;7.034;2022-11-11T00:27:34;18.84;;;11.73;;
30458;SDS011;17254;50.976;7.034;2022-11-11T00:27:59;18.79;;;12.10;;
30458;SDS011;17254;50.976;7.034;2022-11-11T00:28:23;20.05;;;12.55;;
30458;SDS011;17254;50.976;7.034;2022-11-11T00:28:48;19.87;;;12.60;;
30458;SDS011;17254;50.976;7.034;2022-11-11T00:29:13;18.01;;;11.80;;
30458;SDS011;17254;50.976;7.034;2022-11-11T00:29:38;19.40;;;12.02;;
30458;SDS011;17254;50.976;7.034;2022-11-11T00:30:05;19.70;;;12.18;;
30458;SDS011;17254;50.976;7.034;2022-11-11T00:30:30;20.60;;;12.45;;
30458;SDS011;17254;50.976;7.034;2022-11-11T00:31:02;21.84;;;12.63;;
30458;SDS011;17254;50.976;7.034;2022-11-11T00:31:28;19.09;;;12.52;;
30458;SDS011;17254;50.976;7.034;2022-11-11T00:31:53;21.74;;;12.51;;
30458;SDS011;17254;50.976;7.034;2022-11-11T00:32:36;20.35;;;12.30;;
30458;SDS011;17254;50.976;7.034;2022-11-11T00:33:01;18.55;;;12.57;;
30458;SDS011;17254;50.976;7.034;2022-11-11T00:33:26;19.19;;;12.45;;
30458;SDS011;17254;50.976;7.034;2022-11-11T00:33:51;19.24;;;12.43;;
30458;SDS011;17254;50.976;7.034;2022-11-11T00:34:17;19.83;;;12.57;;
30458;SDS011;17254;50.976;7.034;2022-11-11T00:34:41;18.85;;;12.76;;
30458;SDS011;17254;50.976;7.034;2022-11-11T00:35:26;18.20;;;12.50;;
30458;SDS011;17254;50.976;7.034;2022-11-11T00:36:09;18.46;;;11.70;;
30458;SDS011;17254;50.976;7.034;2022-11-11T00:36:34;18.69;;;12.19;;
30458;SDS011;17254;50.976;7.034;2022-11-11T00:36:58;17.95;;;11.65;;
30458;SDS011;17254;50.976;7.034;2022-11-11T00:37:25;19.80;;;11.31;;
30458;SDS011;17254;50.976;7.034;2022-11-11T00:37:50;17.92;;;11.24;;
30458;SDS011;17254;50.976;7.034;2022-11-11T00:38:15;19.83;;;11.81;;
30458;SDS011;17254;50.976;7.034;2022-11-11T00:38:55;21.24;;;12.09;;
30458;SDS011;17254;50.976;7.034;2022-11-11T00:39:20;20.42;;;12.34;;
30458;SDS011;17254;50.976;7.034;2022-11-11T00:39:45;21.31;;;12.49;;
30458;SDS011;17254;50.976;7.034;2022-11-11T00:40:10;21.27;;;12.56;;
30458;SDS011;17254;50.976;7.034;2022-11-11T00:40:36;19.06;;;12.45;;
30458;SDS011;17254;50.976;7.034;2022-11-11T00:41:01;18.09;;;12.26;;
30458;SDS011;17254;50.976;7.034;2022-11-11T00:41:26;20.48;;;11.95;;
30458;SDS011;17254;50.976;7.034;2022-11-11T00:41:51;23.15;;;12.44;;
30458;SDS011;17254;50.976;7.034;2022-11-11T00:42:16;21.04;;;12.09;;
30458;SDS011;17254;50.976;7.034;2022-11-11T00:42:40;19.46;;;11.36;;
30458;SDS011;17254;50.976;7.034;2022-11-11T00:43:06;18.64;;;11.34;;
30458;SDS011;17254;50.976;7.034;2022-11-11T00:43:31;16.46;;;10.84;;
30458;SDS011;17254;50.976;7.034;2022-11-11T00:43:56;18.55;;;11.32;;
30458;SDS011;17254;50.976;7.034;2022-11-11T00:44:20;21.13;;;11.74;;
30458;SDS011;17254;50.976;7.034;2022-11-11T00:44:46;19.74;;;11.69;;
30458;SDS011;17254;50.976;7.034;2022-11-11T00:45:10;20.42;;;12.60;;
30458;SDS011;17254;50.976;7.034;2022-11-11T00:45:35;18.51;;;11.94;;
30458;SDS011;17254;50.976;7.034;2022-11-11T00:45:59;17.14;;;11.79;;
30458;SDS011;17254;50.976;7.034;2022-11-11T00:46:38;19.66;;;12.00;;
30458;SDS011;17254;50.976;7.034;2022-11-11T00:47:21;20.83;;;12.09;;
30458;SDS011;17254;50.976;7.034;2022-11-11T00:48:10;20.49;;;11.86;;
30458;SDS011;17254;50.976;7.034;2022-11-11T00:48:53;19.66;;;12.05;;
30458;SDS011;17254;50.976;7.034;2022-11-11T00:49:36;18.91;;;12.26;;
30458;SDS011;17254;50.976;7.034;2022-11-11T00:50:20;21.04;;;12.56;;
30458;SDS011;17254;50.976;7.034;2022-11-11T00:51:06;21.76;;;12.70;;
30458;SDS011;17254;50.976;7.034;2022-11-11T00:51:31;19.99;;;12.63;;
30458;SDS011;17254;50.976;7.034;2022-11-11T00:51:56;19.38;;;12.56;;
30458;SDS011;17254;50.976;7.034;2022-11-11T00:52:20;20.59;;;12.65;;
30458;SDS011;17254;50.976;7.034;2022-11-11T00:52:46;21.09;;;12.51;;
30458;SDS011;17254;50.976;7.034;2022-11-11T00:53:11;19.92;;;12.04;;
30458;SDS011;17254;50.976;7.034;2022-11-11T00:53:38;21.11;;;12.98;;
30458;SDS011;17254;50.976;7.034;2022-11-11T00:54:06;22.34;;;13.93;;
30458;SDS011;17254;50.976;7.034;2022-11-11T00:54:30;20.10;;;13.52;;
30458;SDS011;17254;50.976;7.034;2022-11-11T00:54:59;19.48;;;13.21;;
30458;SDS011;17254;50.976;7.034;2022-11-11T00:55:23;22.84;;;13.75;;
30458;SDS011;17254;50.976;7.034;2022-11-11T00:55:48;22.56;;;13.05;;
30458;SDS011;17254;50.976;7.034;2022-11-11T00:56:12;21.41;;;13.04;;
30458;SDS011;17254;50.976;7.034;2022-11-11T00:56:37;21.21;;;13.27;;
30458;SDS011;17254;50.976;7.034;2022-11-11T00:57:03;21.39;;;13.60;;
30458;SDS011;17254;50.976;7.034;2022-11-11T00:57:28;21.75;;;13.80;;
30458;SDS011;17254;50.976;7.034;2022-11-11T00:57:52;19.57;;;12.69;;
30458;SDS011;17254;50.976;7.034;2022-11-11T00:58:16;20.35;;;12.89;;
30458;SDS011;17254;50.976;7.034;2022-11-11T00:58:41;22.36;;;13.94;;
30458;SDS011;17254;50.976;7.034;2022-11-11T00:59:07;23.04;;;13.88;;
30458;SDS011;17254;50.976;7.034;2022-11-11T00:59:32;22.96;;;13.63;;
30458;SDS011;17254;50.976;7.034;2022-11-11T00:59:57;20.55;;;13.00;;
30458;SDS011;17254;50.976;7.034;2022-11-11T01:00:22;20.75;;;13.02;;
30458;SDS011;17254;50.976;7.034;2022-11-11T01:00:47;21.01;;;13.20;;
30458;SDS011;17254;50.976;7.034;2022-11-11T01:01:13;20.66;;;13.35;;
30458;SDS011;17254;50.976;7.034;2022-11-11T01:01:37;20.46;;;13.19;;
30458;SDS011;17254;50.976;7.034;2022-11-11T01:02:03;22.25;;;14.04;;
30458;SDS011;17254;50.976;7.034;2022-11-11T01:02:27;21.89;;;13.81;;
30458;SDS011;17254;50.976;7.034;2022-11-11T01:02:52;21.33;;;13.44;;
30458;SDS011;17254;50.976;7.034;2022-11-11T01:03:17;22.17;;;13.90;;
30458;SDS011;17254;50.976;7.034;2022-11-11T01:03:41;21.74;;;13.77;;
30458;SDS011;17254;50.976;7.034;2022-11-11T01:04:07;21.92;;;13.71;;
30458;SDS011;17254;50.976;7.034;2022-11-11T01:04:31;21.49;;;13.80;;
30458;SDS011;17254;50.976;7.034;2022-11-11T01:04:56;21.76;;;14.00;;
30458;SDS011;17254;50.976;7.034;2022-11-11T01:05:21;23.75;;;14.46;;
30458;SDS011;17254;50.976;7.034;2022-11-11T01:05:46;21.86;;;13.85;;
30458;SDS011;17254;50.976;7.034;2022-11-11T01:06:12;21.44;;;14.13;;
30458;SDS011;17254;50.976;7.034;2022-11-11T01:06:37;20.31;;;13.71;;
30458;SDS011;17254;50.976;7.034;2022-11-11T01:07:02;21.40;;;13.96;;
30458;SDS011;17254;50.976;7.034;2022-11-11T01:07:27;23.25;;;13.98;;
30458;SDS011;17254;50.976;7.034;2022-11-11T01:07:53;23.59;;;14.39;;
30458;SDS011;17254;50.976;7.034;2022-11-11T01:08:18;24.25;;;14.68;;
30458;SDS011;17254;50.976;7.034;2022-11-11T01:08:43;23.49;;;14.51;;
30458;SDS011;17254;50.976;7.034;2022-11-11T01:09:08;23.54;;;14.38;;
30458;SDS011;17254;50.976;7.034;2022-11-11T01:09:33;22.21;;;13.49;;
30458;SDS011;17254;50.976;7.034;2022-11-11T01:09:58;23.00;;;14.01;;
30458;SDS011;17254;50.976;7.034;2022-11-11T01:10:22;21.95;;;14.07;;
30458;SDS011;17254;50.976;7.034;2022-11-11T01:11:02;21.90;;;13.43;;
30458;SDS011;17254;50.976;7.034;2022-11-11T01:11:28;23.60;;;14.16;;
30458;SDS011;17254;50.976;7.034;2022-11-11T01:11:52;21.96;;;13.89;;
30458;SDS011;17254;50.976;7.034;2022-11-11T01:12:17;22.10;;;13.60;;
30458;SDS011;17254;50.976;7.034;2022-11-11T01:12:41;23.65;;;14.55;;
30458;SDS011;17254;50.976;7.034;2022-11-11T01:13:12;22.19;;;14.24;;
30458;SDS011;17254;50.976;7.034;2022-11-11T01:13:39;19.95;;;13.25;;
30458;SDS011;17254;50.976;7.034;2022-11-11T01:14:04;19.84;;;13.40;;
30458;SDS011;17254;50.976;7.034;2022-11-11T01:14:29;21.66;;;13.52;;
30458;SDS011;17254;50.976;7.034;2022-11-11T01:14:54;20.94;;;13.52;;
30458;SDS011;17254;50.976;7.034;2022-11-11T01:15:19;20.64;;;13.70;;
30458;SDS011;17254;50.976;7.034;2022-11-11T01:15:44;19.52;;;12.64;;
30458;SDS011;17254;50.976;7.034;2022-11-11T01:16:10;20.04;;;13.07;;
30458;SDS011;17254;50.976;7.034;2022-11-11T01:16:37;20.91;;;12.95;;
30458;SDS011;17254;50.976;7.034;2022-11-11T01:17:01;21.89;;;12.10;;
30458;SDS011;17254;50.976;7.034;2022-11-11T01:17:27;20.69;;;12.40;;
30458;SDS011;17254;50.976;7.034;2022-11-11T01:17:52;19.02;;;12.77;;
30458;SDS011;17254;50.976;7.034;2022-11-11T01:18:17;20.10;;;13.32;;
30458;SDS011;17254;50.976;7.034;2022-11-11T01:18:44;20.50;;;13.32;;
30458;SDS011;17254;50.976;7.034;2022-11-11T01:19:08;20.66;;;12.74;;
30458;SDS011;17254;50.976;7.034;2022-11-11T01:19:33;21.63;;;13.07;;
30458;SDS011;17254;50.976;7.034;2022-11-11T01:19:58;22.64;;;13.25;;
30458;SDS011;17254;50.976;7.034;2022-11-11T01:20:23;23.89;;;13.64;;
30458;SDS011;17254;50.976;7.034;2022-11-11T01:20:55;22.34;;;13.29;;
30458;SDS011;17254;50.976;7.034;2022-11-11T01:21:22;23.75;;;14.07;;
30458;SDS011;17254;50.976;7.034;2022-11-11T01:21:49;22.75;;;14.09;;
30458;SDS011;17254;50.976;7.034;2022-11-11T01:22:13;20.55;;;13.46;;
30458;SDS011;17254;50.976;7.034;2022-11-11T01:22:38;19.89;;;13.26;;
30458;SDS011;17254;50.976;7.034;2022-11-11T01:23:04;22.56;;;13.16;;
30458;SDS011;17254;50.976;7.034;2022-11-11T01:23:30;21.44;;;13.60;;
30458;SDS011;17254;50.976;7.034;2022-11-11T01:23:57;19.65;;;13.00;;
30458;SDS011;17254;50.976;7.034;2022-11-11T01:24:22;19.95;;;12.48;;
30458;SDS011;17254;50.976;7.034;2022-11-11T01:24:47;19.86;;;12.77;;
30458;SDS011;17254;50.976;7.034;2022-11-11T01:25:12;21.95;;;13.11;;
30458;SDS011;17254;50.976;7.034;2022-11-11T01:25:38;20.98;;;12.79;;
30458;SDS011;17254;50.976;7.034;2022-11-11T01:26:04;20.75;;;12.84;;
30458;SDS011;17254;50.976;7.034;2022-11-11T01:26:31;20.50;;;13.19;;
30458;SDS011;17254;50.976;7.034;2022-11-11T01:26:56;22.96;;;13.04;;
30458;SDS011;17254;50.976;7.034;2022-11-11T01:27:21;23.10;;;12.60;;
30458;SDS011;17254;50.976;7.034;2022-11-11T01:27:45;20.64;;;12.45;;
30458;SDS011;17254;50.976;7.034;2022-11-11T01:28:10;22.98;;;13.05;;
30458;SDS011;17254;50.976;7.034;2022-11-11T01:28:36;23.95;;;13.51;;
30458;SDS011;17254;50.976;7.034;2022-11-11T01:29:00;19.90;;;13.23;;
30458;SDS011;17254;50.976;7.034;2022-11-11T01:29:25;18.89;;;12.55;;
30458;SDS011;17254;50.976;7.034;2022-11-11T01:29:51;21.04;;;12.36;;
30458;SDS011;17254;50.976;7.034;2022-11-11T01:30:15;20.91;;;12.43;;
30458;SDS011;17254;50.976;7.034;2022-11-11T01:30:39;21.30;;;13.10;;
30458;SDS011;17254;50.976;7.034;2022-11-11T01:31:05;22.71;;;13.60;;
30458;SDS011;17254;50.976;7.034;2022-11-11T01:31:32;22.31;;;13.44;;
30458;SDS011;17254;50.976;7.034;2022-11-11T01:31:57;20.91;;;13.60;;
30458;SDS011;17254;50.976;7.034;2022-11-11T01:32:21;19.04;;;12.86;;
30458;SDS011;17254;50.976;7.034;2022-11-11T01:32:46;18.45;;;12.11;;
30458;SDS011;17254;50.976;7.034;2022-11-11T01:33:11;19.85;;;12.32;;
30458;SDS011;17254;50.976;7.034;2022-11-11T01:33:36;19.19;;;12.48;;
30458;SDS011;17254;50.976;7.034;2022-11-11T01:34:01;20.95;;;12.98;;
30458;SDS011;17254;50.976;7.034;2022-11-11T01:34:26;22.75;;;12.68;;
30458;SDS011;17254;50.976;7.034;2022-11-11T01:34:51;21.85;;;11.98;;
30458;SDS011;17254;50.976;7.034;2022-11-11T01:35:16;20.92;;;12.88;;
30458;SDS011;17254;50.976;7.034;2022-11-11T01:35:41;21.23;;;13.24;;
30458;SDS011;17254;50.976;7.034;2022-11-11T01:36:06;21.39;;;13.44;;
30458;SDS011;17254;50.976;7.034;2022-11-11T01:36:33;18.59;;;12.91;;
30458;SDS011;17254;50.976;7.034;2022-11-11T01:36:58;20.27;;;12.36;;
30458;SDS011;17254;50.976;7.034;2022-11-11T01:37:22;19.92;;;12.14;;
30458;SDS011;17254;50.976;7.034;2022-11-11T01:37:47;18.83;;;12.68;;
30458;SDS011;17254;50.976;7.034;2022-11-11T01:38:14;21.96;;;13.30;;
30458;SDS011;17254;50.976;7.034;2022-11-11T01:38:39;22.61;;;13.07;;
30458;SDS011;17254;50.976;7.034;2022-11-11T01:39:05;22.76;;;13.13;;
30458;SDS011;17254;50.976;7.034;2022-11-11T01:39:30;20.65;;;12.91;;
30458;SDS011;17254;50.976;7.034;2022-11-11T01:39:54;22.54;;;12.90;;
30458;SDS011;17254;50.976;7.034;2022-11-11T01:40:19;20.55;;;12.26;;
30458;SDS011;17254;50.976;7.034;2022-11-11T01:40:44;20.49;;;12.69;;
30458;SDS011;17254;50.976;7.034;2022-11-11T01:41:12;18.98;;;12.19;;
30458;SDS011;17254;50.976;7.034;2022-11-11T01:41:57;18.48;;;12.59;;
30458;SDS011;17254;50.976;7.034;2022-11-11T01:42:21;22.27;;;12.65;;
30458;SDS011;17254;50.976;7.034;2022-11-11T01:42:47;22.66;;;12.38;;
30458;SDS011;17254;50.976;7.034;2022-11-11T01:43:17;22.17;;;12.70;;
30458;SDS011;17254;50.976;7.034;2022-11-11T01:43:44;19.35;;;11.91;;
30458;SDS011;17254;50.976;7.034;2022-11-11T01:44:16;20.24;;;12.04;;
30458;SDS011;17254;50.976;7.034;2022-11-11T01:44:44;21.90;;;12.65;;
30458;SDS011;17254;50.976;7.034;2022-11-11T01:46:09;19.66;;;12.64;;
30458;SDS011;17254;50.976;7.034;2022-11-11T01:46:45;22.27;;;13.02;;
30458;SDS011;17254;50.976;7.034;2022-11-11T01:47:12;24.95;;;13.35;;
30458;SDS011;17254;50.976;7.034;2022-11-11T01:47:38;23.15;;;13.30;;
30458;SDS011;17254;50.976;7.034;2022-11-11T01:48:18;22.56;;;13.35;;
30458;SDS011;17254;50.976;7.034;2022-11-11T01:49:15;22.27;;;13.18;;
30458;SDS011;17254;50.976;7.034;2022-11-11T01:49:48;20.67;;;12.70;;
30458;SDS011;17254;50.976;7.034;2022-11-11T01:50:16;21.90;;;13.59;;
30458;SDS011;17254;50.976;7.034;2022-11-11T01:50:41;21.34;;;13.34;;
30458;SDS011;17254;50.976;7.034;2022-11-11T01:51:06;20.88;;;13.10;;
30458;SDS011;17254;50.976;7.034;2022-11-11T01:51:38;21.29;;;13.34;;
30458;SDS011;17254;50.976;7.034;2022-11-11T01:52:06;20.77;;;13.93;;
30458;SDS011;17254;50.976;7.034;2022-11-11T01:52:37;22.83;;;13.25;;
30458;SDS011;17254;50.976;7.034;2022-11-11T01:53:05;22.54;;;12.73;;
30458;SDS011;17254;50.976;7.034;2022-11-11T01:53:31;20.80;;;12.81;;
30458;SDS011;17254;50.976;7.034;2022-11-11T01:53:57;21.60;;;13.46;;
30458;SDS011;17254;50.976;7.034;2022-11-11T01:54:26;22.46;;;13.27;;
30458;SDS011;17254;50.976;7.034;2022-11-11T01:54:57;25.06;;;13.65;;
30458;SDS011;17254;50.976;7.034;2022-11-11T01:55:25;23.36;;;13.59;;
30458;SDS011;17254;50.976;7.034;2022-11-11T01:55:51;22.39;;;12.85;;
30458;SDS011;17254;50.976;7.034;2022-11-11T01:56:16;23.30;;;13.13;;
30458;SDS011;17254;50.976;7.034;2022-11-11T01:56:42;22.70;;;12.85;;
30458;SDS011;17254;50.976;7.034;2022-11-11T01:57:10;21.77;;;13.19;;
30458;SDS011;17254;50.976;7.034;2022-11-11T01:57:42;19.57;;;13.18;;
30458;SDS011;17254;50.976;7.034;2022-11-11T01:58:12;21.74;;;13.70;;
30458;SDS011;17254;50.976;7.034;2022-11-11T01:58:39;20.38;;;12.79;;
30458;SDS011;17254;50.976;7.034;2022-11-11T01:59:05;17.92;;;12.16;;
30458;SDS011;17254;50.976;7.034;2022-11-11T01:59:35;21.41;;;12.99;;
30458;SDS011;17254;50.976;7.034;2022-11-11T02:00:03;25.17;;;14.14;;
30458;SDS011;17254;50.976;7.034;2022-11-11T02:00:29;23.71;;;14.11;;
30458;SDS011;17254;50.976;7.034;2022-11-11T02:00:55;22.23;;;13.30;;
30458;SDS011;17254;50.976;7.034;2022-11-11T02:01:21;19.84;;;12.26;;
30458;SDS011;17254;50.976;7.034;2022-11-11T02:01:45;19.59;;;11.89;;
30458;SDS011;17254;50.976;7.034;2022-11-11T02:02:13;22.42;;;13.07;;
30458;SDS011;17254;50.976;7.034;2022-11-11T02:02:45;24.92;;;14.45;;
30458;SDS011;17254;50.976;7.034;2022-11-11T02:03:12;20.75;;;13.40;;
30458;SDS011;17254;50.976;7.034;2022-11-11T02:03:38;20.80;;;13.48;;
30458;SDS011;17254;50.976;7.034;2022-11-11T02:04:04;23.98;;;14.01;;
30458;SDS011;17254;50.976;7.034;2022-11-11T02:04:49;26.17;;;14.71;;
30458;SDS011;17254;50.976;7.034;2022-11-11T02:05:34;28.09;;;14.39;;
30458;SDS011;17254;50.976;7.034;2022-11-11T02:06:06;24.48;;;13.99;;
30458;SDS011;17254;50.976;7.034;2022-11-11T02:06:32;24.58;;;13.70;;
30458;SDS011;17254;50.976;7.034;2022-11-11T02:07:00;22.60;;;13.91;;
30458;SDS011;17254;50.976;7.034;2022-11-11T02:07:27;23.17;;;14.10;;
30458;SDS011;17254;50.976;7.034;2022-11-11T02:07:53;21.50;;;13.57;;
30458;SDS011;17254;50.976;7.034;2022-11-11T02:08:23;22.96;;;14.36;;
30458;SDS011;17254;50.976;7.034;2022-11-11T02:09:01;25.60;;;14.48;;
30458;SDS011;17254;50.976;7.034;2022-11-11T02:09:27;25.26;;;14.52;;
30458;SDS011;17254;50.976;7.034;2022-11-11T02:09:54;25.69;;;14.41;;
30458;SDS011;17254;50.976;7.034;2022-11-11T02:10:21;24.48;;;13.98;;
30458;SDS011;17254;50.976;7.034;2022-11-11T02:10:47;24.96;;;14.20;;
30458;SDS011;17254;50.976;7.034;2022-11-11T02:11:13;25.16;;;14.15;;
30458;SDS011;17254;50.976;7.034;2022-11-11T02:12:02;24.70;;;14.70;;
30458;SDS011;17254;50.976;7.034;2022-11-11T02:12:50;24.08;;;14.66;;
30458;SDS011;17254;50.976;7.034;2022-11-11T02:13:33;23.63;;;13.60;;
30458;SDS011;17254;50.976;7.034;2022-11-11T02:14:20;22.76;;;13.52;;
30458;SDS011;17254;50.976;7.034;2022-11-11T02:14:59;20.73;;;12.98;;
30458;SDS011;17254;50.976;7.034;2022-11-11T02:15:24;23.01;;;13.09;;
30458;SDS011;17254;50.976;7.034;2022-11-11T02:15:49;23.06;;;13.18;;
30458;SDS011;17254;50.976;7.034;2022-11-11T02:16:14;23.39;;;13.81;;
30458;SDS011;17254;50.976;7.034;2022-11-11T02:16:39;24.19;;;14.39;;
30458;SDS011;17254;50.976;7.034;2022-11-11T02:17:05;23.00;;;14.29;;
30458;SDS011;17254;50.976;7.034;2022-11-11T02:17:32;23.98;;;14.07;;
30458;SDS011;17254;50.976;7.034;2022-11-11T02:17:57;25.92;;;14.91;;
30458;SDS011;17254;50.976;7.034;2022-11-11T02:18:22;27.05;;;15.30;;
30458;SDS011;17254;50.976;7.034;2022-11-11T02:18:48;25.39;;;14.81;;
30458;SDS011;17254;50.976;7.034;2022-11-11T02:19:13;23.97;;;14.93;;
30458;SDS011;17254;50.976;7.034;2022-11-11T02:19:43;24.66;;;14.88;;
30458;SDS011;17254;50.976;7.034;2022-11-11T02:20:13;25.50;;;14.56;;
30458;SDS011;17254;50.976;7.034;2022-11-11T02:20:40;23.74;;;13.63;;
30458;SDS011;17254;50.976;7.034;2022-11-11T02:21:07;23.01;;;13.84;;
30458;SDS011;17254;50.976;7.034;2022-11-11T02:21:34;22.88;;;13.85;;
30458;SDS011;17254;50.976;7.034;2022-11-11T02:22:04;22.00;;;13.63;;
30458;SDS011;17254;50.976;7.034;2022-11-11T02:22:36;24.46;;;14.56;;
30458;SDS011;17254;50.976;7.034;2022-11-11T02:23:07;26.75;;;15.18;;
30458;SDS011;17254;50.976;7.034;2022-11-11T02:23:36;27.10;;;15.41;;
30458;SDS011;17254;50.976;7.034;2022-11-11T02:24:06;25.99;;;15.82;;
30458;SDS011;17254;50.976;7.034;2022-11-11T02:24:33;26.92;;;15.77;;
30458;SDS011;17254;50.976;7.034;2022-11-11T02:24:59;26.23;;;15.01;;
30458;SDS011;17254;50.976;7.034;2022-11-11T02:25:26;25.96;;;15.01;;
30458;SDS011;17254;50.976;7.034;2022-11-11T02:25:53;26.74;;;15.55;;
30458;SDS011;17254;50.976;7.034;2022-11-11T02:26:20;25.88;;;15.11;;
30458;SDS011;17254;50.976;7.034;2022-11-11T02:26:45;23.64;;;14.69;;
30458;SDS011;17254;50.976;7.034;2022-11-11T02:27:12;24.27;;;14.57;;
30458;SDS011;17254;50.976;7.034;2022-11-11T02:27:40;23.83;;;14.94;;
30458;SDS011;17254;50.976;7.034;2022-11-11T02:28:08;24.31;;;15.09;;
30458;SDS011;17254;50.976;7.034;2022-11-11T02:28:34;27.54;;;15.41;;
30458;SDS011;17254;50.976;7.034;2022-11-11T02:29:00;27.25;;;15.15;;
30458;SDS011;17254;50.976;7.034;2022-11-11T02:29:26;26.67;;;15.13;;
30458;SDS011;17254;50.976;7.034;2022-11-11T02:29:53;24.76;;;15.34;;
30458;SDS011;17254;50.976;7.034;2022-11-11T02:30:20;24.40;;;14.84;;
30458;SDS011;17254;50.976;7.034;2022-11-11T02:30:44;23.71;;;14.75;;
30458;SDS011;17254;50.976;7.034;2022-11-11T02:31:09;24.19;;;14.48;;
30458;SDS011;17254;50.976;7.034;2022-11-11T02:31:34;25.94;;;14.99;;
30458;SDS011;17254;50.976;7.034;2022-11-11T02:32:00;25.31;;;14.61;;
30458;SDS011;17254;50.976;7.034;2022-11-11T02:32:24;24.27;;;14.61;;
30458;SDS011;17254;50.976;7.034;2022-11-11T02:32:50;26.50;;;15.08;;
30458;SDS011;17254;50.976;7.034;2022-11-11T02:33:16;26.65;;;15.07;;
30458;SDS011;17254;50.976;7.034;2022-11-11T02:33:42;25.29;;;14.68;;
30458;SDS011;17254;50.976;7.034;2022-11-11T02:34:06;26.25;;;15.61;;
30458;SDS011;17254;50.976;7.034;2022-11-11T02:34:31;25.96;;;15.91;;
30458;SDS011;17254;50.976;7.034;2022-11-11T02:34:56;25.06;;;15.31;;
30458;SDS011;17254;50.976;7.034;2022-11-11T02:35:23;22.83;;;14.18;;
30458;SDS011;17254;50.976;7.034;2022-11-11T02:35:53;22.75;;;14.38;;
30458;SDS011;17254;50.976;7.034;2022-11-11T02:36:20;25.94;;;15.02;;
30458;SDS011;17254;50.976;7.034;2022-11-11T02:36:45;25.24;;;14.90;;
30458;SDS011;17254;50.976;7.034;2022-11-11T02:37:11;26.71;;;14.66;;
30458;SDS011;17254;50.976;7.034;2022-11-11T02:37:37;27.26;;;15.01;;
30458;SDS011;17254;50.976;7.034;2022-11-11T02:38:02;26.42;;;14.93;;
30458;SDS011;17254;50.976;7.034;2022-11-11T02:38:30;25.70;;;14.77;;
30458;SDS011;17254;50.976;7.034;2022-11-11T02:38:56;26.17;;;15.36;;
30458;SDS011;17254;50.976;7.034;2022-11-11T02:39:22;26.88;;;15.79;;
30458;SDS011;17254;50.976;7.034;2022-11-11T02:39:49;27.80;;;15.26;;
30458;SDS011;17254;50.976;7.034;2022-11-11T02:40:17;26.67;;;15.10;;
30458;SDS011;17254;50.976;7.034;2022-11-11T02:40:45;24.66;;;14.70;;
30458;SDS011;17254;50.976;7.034;2022-11-11T02:41:24;26.30;;;15.24;;
30458;SDS011;17254;50.976;7.034;2022-11-11T02:42:07;26.76;;;15.44;;
30458;SDS011;17254;50.976;7.034;2022-11-11T02:42:33;25.27;;;15.44;;
30458;SDS011;17254;50.976;7.034;2022-11-11T02:42:59;24.86;;;14.81;;
30458;SDS011;17254;50.976;7.034;2022-11-11T02:43:23;25.24;;;14.96;;
30458;SDS011;17254;50.976;7.034;2022-11-11T02:43:48;24.95;;;14.82;;